Time;durP1;ratioP1;P1;durP2;ratioP2;P2;SDS_P1;SDS_P2;PMS_P1;PMS_P2;Temp;Humidity;BMP_temperature;BMP_pressure;BME280_temperature;BME280_humidity;BME280_pressure;Samples;Min_cycle;Max_cycle;Signal;HPM_P1;HPM_P2
2023/10/01 00:00:46;;;;;;;17.50;10.95;;;15.70;99.90;;;;;;5018542;28;20665;-90
2023/10/01 00:03:11;;;;;;;17.45;10.90;;;15.70;99.90;;;;;;5018362;28;20504;-90
2023/10/01 00:05:39;;;;;;;17.92;11.10;;;15.70;99.90;;;;;;5018830;28;20040;-89
2023/10/01 00:08:08;;;;;;;16.63;6.50;;;15.80;99.90;;;;;;5019104;28;20496;-89
2023/10/01 00:10:34;;;;;;;17.48;10.85;;;15.70;99.90;;;;;;5018862;28;20087;-89
2023/10/01 00:12:59;;;;;;;15.65;10.35;;;15.70;99.90;;;;;;5034983;28;20033;-89
2023/10/01 00:15:26;;;;;;;18.52;11.63;;;15.70;99.90;;;;;;5018088;28;20085;-90
2023/10/01 00:17:52;;;;;;;12.65;6.30;;;15.70;99.90;;;;;;5018051;28;20040;-89
2023/10/01 00:20:25;;;;;;;19.45;10.93;;;15.60;99.90;;;;;;5014978;28;20038;-89
2023/10/01 00:23:05;;;;;;;16.88;10.50;;;15.60;99.90;;;;;;5034391;28;20036;-89
2023/10/01 00:25:32;;;;;;;17.58;11.02;;;15.60;99.90;;;;;;5035156;28;20108;-89
2023/10/01 00:27:59;;;;;;;19.58;11.45;;;15.60;99.90;;;;;;5035332;28;20446;-90
2023/10/01 00:30:31;;;;;;;16.98;10.73;;;15.60;99.90;;;;;;5018335;28;20051;-89
2023/10/01 00:32:56;;;;;;;19.80;11.55;;;15.60;99.90;;;;;;5034822;28;20044;-89
2023/10/01 00:35:22;;;;;;;16.15;6.15;;;15.50;99.90;;;;;;5018067;28;20037;-90
2023/10/01 00:37:48;;;;;;;15.63;7.03;;;15.50;99.90;;;;;;5017723;28;20032;-89
2023/10/01 00:40:14;;;;;;;18.58;12.10;;;15.40;99.90;;;;;;5017935;28;20041;-89
2023/10/01 00:42:40;;;;;;;14.35;6.75;;;15.40;99.90;;;;;;5018024;28;20044;-89
2023/10/01 00:45:08;;;;;;;16.00;11.05;;;15.40;99.90;;;;;;5017861;28;20048;-89
2023/10/01 00:47:39;;;;;;;16.42;12.00;;;15.50;99.90;;;;;;5034076;28;20041;-89
2023/10/01 00:50:24;;;;;;;17.92;12.10;;;15.50;99.90;;;;;;5017921;28;20041;-89
2023/10/01 00:52:51;;;;;;;20.70;12.40;;;15.50;99.90;;;;;;5034274;28;20086;-89
2023/10/01 00:55:19;;;;;;;16.75;7.40;;;15.60;99.90;;;;;;5018142;28;20131;-89
2023/10/01 00:57:44;;;;;;;17.20;11.55;;;15.50;99.90;;;;;;5018018;28;20123;-89
2023/10/01 01:00:16;;;;;;;18.67;13.02;;;15.60;99.90;;;;;;5024570;28;20072;-89
2023/10/01 01:02:57;;;;;;;20.25;12.88;;;15.60;99.90;;;;;;5009806;28;20043;-89
2023/10/01 01:05:34;;;;;;;17.13;12.15;;;15.60;99.90;;;;;;5014520;28;20033;-89
2023/10/01 01:08:07;;;;;;;14.73;7.47;;;15.60;99.90;;;;;;5018477;28;20510;-89
2023/10/01 01:10:39;;;;;;;18.15;12.50;;;15.60;99.90;;;;;;5034073;28;20049;-88
2023/10/01 01:13:06;;;;;;;20.75;12.98;;;15.60;99.90;;;;;;5017498;28;20041;-89
2023/10/01 01:15:34;;;;;;;14.38;5.80;;;15.60;99.90;;;;;;5033832;28;20036;-89
2023/10/01 01:18:01;;;;;;;20.58;13.15;;;15.60;99.90;;;;;;5033538;28;20079;-89
2023/10/01 01:20:36;;;;;;;17.75;7.82;;;15.60;99.90;;;;;;5017113;28;20091;-89
2023/10/01 01:23:06;;;;;;;17.42;12.15;;;15.60;99.90;;;;;;5034153;28;20087;-89
2023/10/01 01:25:33;;;;;;;17.40;13.32;;;15.60;99.90;;;;;;5034142;28;20044;-89
2023/10/01 01:27:59;;;;;;;14.93;6.45;;;15.60;99.90;;;;;;5033826;28;20416;-87
2023/10/01 01:30:29;;;;;;;16.60;12.73;;;15.60;99.90;;;;;;5017398;28;20032;-88
2023/10/01 01:32:57;;;;;;;18.88;13.90;;;15.60;99.90;;;;;;5033495;28;20116;-87
2023/10/01 01:35:28;;;;;;;22.48;8.77;;;15.60;99.90;;;;;;5033977;28;20064;-87
2023/10/01 01:37:58;;;;;;;17.23;12.93;;;15.60;99.90;;;;;;5016927;28;20518;-87
2023/10/01 01:40:36;;;;;;;17.42;13.30;;;15.60;99.90;;;;;;5017016;28;20377;-87
2023/10/01 01:43:15;;;;;;;17.23;13.52;;;15.70;99.90;;;;;;5017039;28;20420;-87
2023/10/01 01:45:44;;;;;;;19.52;14.18;;;15.70;99.90;;;;;;5033406;28;20040;-87
2023/10/01 01:48:29;;;;;;;17.90;13.88;;;15.70;99.90;;;;;;5032583;28;20504;-87
2023/10/01 01:51:02;;;;;;;15.02;7.20;;;15.70;99.90;;;;;;5033495;28;20091;-87
2023/10/01 01:53:34;;;;;;;;;;;15.60;99.90;;;;;;5016931;28;20033;-87
2023/10/01 01:56:08;;;;;;;12.45;6.93;;;15.60;99.90;;;;;;5032641;28;19952;-87
2023/10/01 01:58:35;;;;;;;19.27;13.93;;;15.50;99.90;;;;;;5016331;28;20443;-87
2023/10/01 02:01:08;;;;;;;17.00;13.43;;;15.60;99.90;;;;;;5032698;28;20397;-87
2023/10/01 02:03:44;;;;;;;;;;;15.60;99.90;;;;;;5033014;28;20591;-87
2023/10/01 02:06:09;;;;;;;18.17;14.65;;;15.60;99.90;;;;;;5017065;28;20339;-87
2023/10/01 02:08:49;;;;;;;14.57;7.47;;;15.60;99.90;;;;;;5033353;28;20493;-87
2023/10/01 02:11:20;;;;;;;20.02;15.23;;;15.60;99.90;;;;;;5016859;28;20041;-87
2023/10/01 02:13:54;;;;;;;19.05;15.02;;;15.60;99.90;;;;;;5016475;28;20037;-87
2023/10/01 02:19:19;;;;;;;18.40;8.90;;;15.60;99.90;;;;;;5032307;28;20068;-88
2023/10/01 02:24:23;;;;;;;21.02;15.70;;;15.50;99.90;;;;;;5032802;28;20111;-88
2023/10/01 02:26:53;;;;;;;23.65;16.35;;;15.60;99.90;;;;;;5032794;28;20128;-88
2023/10/01 02:29:24;;;;;;;19.25;9.40;;;15.60;99.90;;;;;;5050756;28;20045;-88
2023/10/01 02:31:57;;;;;;;18.92;7.40;;;15.60;99.90;;;;;;5032971;28;20040;-89
2023/10/01 02:34:24;;;;;;;14.90;7.65;;;15.50;99.90;;;;;;5032636;28;20037;-89
2023/10/01 02:36:51;;;;;;;20.95;16.08;;;15.50;99.90;;;;;;5032231;28;20098;-89
2023/10/01 02:39:21;;;;;;;17.00;9.23;;;15.50;99.90;;;;;;5032619;28;20068;-88
2023/10/01 02:44:38;;;;;;;13.75;7.95;;;15.50;99.90;;;;;;5032887;28;20059;-89
2023/10/01 02:47:17;;;;;;;19.25;15.07;;;15.50;99.90;;;;;;5032814;28;20083;-88
2023/10/01 02:49:59;;;;;;;18.67;9.38;;;15.50;99.90;;;;;;5016369;28;20037;-88
2023/10/01 02:52:35;;;;;;;14.80;8.40;;;15.50;99.90;;;;;;5033066;28;20095;-89
2023/10/01 02:55:00;;;;;;;19.65;16.58;;;15.40;99.90;;;;;;5016280;28;20284;-89
2023/10/01 02:57:27;;;;;;;21.75;16.38;;;15.50;99.90;;;;;;5050158;28;20070;-88
2023/10/01 03:00:10;;;;;;;17.73;9.30;;;15.50;99.90;;;;;;5032264;28;20108;-89
2023/10/01 03:02:41;;;;;;;20.10;8.95;;;15.50;99.90;;;;;;5015782;28;20072;-88
2023/10/01 03:05:19;;;;;;;20.48;15.77;;;15.40;99.90;;;;;;5016466;28;20059;-88
2023/10/01 03:07:45;;;;;;;17.98;15.45;;;15.50;99.90;;;;;;5032590;28;20495;-88
2023/10/01 03:10:25;;;;;;;20.25;15.80;;;15.50;99.90;;;;;;5016354;28;20041;-88
2023/10/01 03:12:56;;;;;;;21.95;15.77;;;15.50;99.90;;;;;;5032680;28;20090;-88
2023/10/01 03:15:29;;;;;;;16.27;9.05;;;15.50;99.90;;;;;;5019058;28;20103;-88
2023/10/01 03:18:06;;;;;;;14.85;7.65;;;15.50;99.90;;;;;;5052596;28;20049;-87
2023/10/01 03:23:33;;;;;;;17.70;9.77;;;15.40;99.90;;;;;;5036336;28;20408;-88
2023/10/01 03:26:00;;;;;;;20.40;16.00;;;15.40;99.90;;;;;;5052891;28;20044;-88
2023/10/01 03:28:35;;;;;;;19.45;16.27;;;15.50;99.90;;;;;;5038134;28;20049;-88
2023/10/01 03:31:12;;;;;;;21.58;15.73;;;15.50;99.90;;;;;;5037693;28;20040;-88
2023/10/01 03:33:39;;;;;;;14.00;6.85;;;15.50;99.90;;;;;;5030106;28;20124;-87
2023/10/01 03:36:10;;;;;;;19.25;15.43;;;15.40;99.90;;;;;;5044020;28;20115;-88
2023/10/01 03:38:42;;;;;;;20.85;8.05;;;15.50;99.90;;;;;;5020940;28;20068;-88
2023/10/01 03:41:20;;;;;;;19.33;14.70;;;15.40;99.90;;;;;;5020185;28;20045;-88
2023/10/01 03:43:47;;;;;;;15.60;9.23;;;15.40;99.90;;;;;;5019510;28;20404;-88
2023/10/01 03:46:15;;;;;;;18.05;14.70;;;15.40;99.90;;;;;;5035717;28;20048;-87
2023/10/01 03:54:26;;;;;;;16.10;6.70;;;15.50;99.90;;;;;;5035756;28;20041;-88
2023/10/01 03:56:58;;;;;;;11.82;5.75;;;15.40;99.90;;;;;;5019258;28;20075;-90
2023/10/01 03:59:32;;;;;;;19.27;13.25;;;15.40;99.90;;;;;;5034898;28;20040;-89
2023/10/01 04:01:58;;;;;;;18.88;14.30;;;15.40;99.90;;;;;;5035588;28;20469;-88
2023/10/01 04:04:28;;;;;;;18.63;14.40;;;15.50;99.90;;;;;;5018291;28;20531;-88
2023/10/01 04:07:11;;;;;;;18.48;7.75;;;15.50;99.90;;;;;;5034896;28;20548;-88
2023/10/01 04:09:46;;;;;;;19.38;14.23;;;15.40;99.90;;;;;;5018810;28;20133;-89
2023/10/01 04:12:32;;;;;;;18.80;8.23;;;15.40;99.90;;;;;;5035211;28;20107;-88
2023/10/01 04:15:02;;;;;;;16.80;8.05;;;15.40;99.90;;;;;;5031779;28;20038;-89
2023/10/01 04:17:28;;;;;;;15.10;7.50;;;15.30;99.90;;;;;;5030967;28;20059;-88
2023/10/01 04:20:19;;;;;;;19.67;14.00;;;15.30;99.90;;;;;;5018318;28;20041;-88
2023/10/01 04:22:44;;;;;;;16.23;12.10;;;15.40;99.90;;;;;;5034802;28;20115;-88
2023/10/01 04:25:12;;;;;;;17.85;12.95;;;15.40;99.90;;;;;;5017459;28;20132;-88
2023/10/01 04:27:42;;;;;;;18.17;13.43;;;15.50;99.90;;;;;;5034842;28;20076;-88
2023/10/01 04:30:10;;;;;;;16.25;7.07;;;15.50;99.90;;;;;;5018432;28;20041;-89
2023/10/01 04:32:36;;;;;;;17.60;14.05;;;15.40;99.90;;;;;;5018233;28;20498;-89
2023/10/01 04:35:14;;;;;;;12.77;6.97;;;15.50;99.90;;;;;;5034313;28;20523;-89
2023/10/01 04:37:44;;;;;;;19.08;13.57;;;15.40;99.90;;;;;;5034227;28;20074;-88
2023/10/01 04:40:46;;;;;;;18.85;13.50;;;15.40;99.90;;;;;;5018091;28;20033;-90
2023/10/01 04:43:08;;;;;;;14.00;7.05;;;15.50;99.90;;;;;;5030418;28;20079;-88
2023/10/01 04:45:40;;;;;;;17.00;13.18;;;15.40;99.90;;;;;;5034456;28;20508;-89
2023/10/01 04:48:15;;;;;;;19.25;13.45;;;15.40;99.90;;;;;;5017703;28;20424;-88
2023/10/01 04:50:46;;;;;;;15.52;7.50;;;15.40;99.90;;;;;;5034367;28;20091;-88
2023/10/01 04:53:13;;;;;;;18.92;13.90;;;15.40;99.90;;;;;;5017940;28;20116;-89
2023/10/01 04:55:42;;;;;;;15.68;12.55;;;15.40;99.90;;;;;;5050531;28;20044;-89
2023/10/01 04:58:12;;;;;;;15.95;7.25;;;15.40;99.90;;;;;;5017327;28;20037;-89
2023/10/01 05:00:44;;;;;;;18.75;13.35;;;15.40;99.90;;;;;;5032200;28;20060;-88
2023/10/01 05:03:10;;;;;;;12.00;6.18;;;15.40;99.90;;;;;;5052030;28;20041;-88
2023/10/01 05:05:37;;;;;;;17.17;13.25;;;15.30;99.90;;;;;;5017434;28;20048;-88
2023/10/01 05:08:04;;;;;;;15.10;7.93;;;15.30;99.90;;;;;;5017453;28;20079;-88
2023/10/01 05:10:29;;;;;;;18.55;13.13;;;15.30;99.90;;;;;;5033872;28;20080;-88
2023/10/01 05:12:58;;;;;;;16.88;12.90;;;15.30;99.90;;;;;;5017269;28;20068;-88
2023/10/01 05:15:35;;;;;;;14.90;6.45;;;15.30;99.90;;;;;;5033416;28;20045;-87
2023/10/01 05:18:04;;;;;;;17.95;12.30;;;15.30;99.90;;;;;;5016890;28;20037;-88
2023/10/01 05:20:31;;;;;;;13.30;6.38;;;15.40;99.90;;;;;;5017014;28;20068;-88
2023/10/01 05:23:02;;;;;;;14.23;5.90;;;15.40;99.90;;;;;;5017743;28;20048;-88
2023/10/01 05:25:31;;;;;;;17.02;11.32;;;15.30;99.90;;;;;;5017305;28;20040;-88
2023/10/01 05:27:59;;;;;;;16.98;11.85;;;15.40;99.90;;;;;;5033339;28;20119;-88
2023/10/01 05:30:39;;;;;;;16.83;6.75;;;15.40;99.90;;;;;;5033684;28;20084;-88
2023/10/01 05:33:06;;;;;;;18.45;12.88;;;15.40;99.90;;;;;;5033661;28;20041;-88
2023/10/01 05:35:44;;;;;;;17.42;11.68;;;15.30;99.90;;;;;;5033628;28;20052;-89
2023/10/01 05:38:11;;;;;;;11.25;5.47;;;15.40;99.90;;;;;;5015996;28;20044;-88
2023/10/01 05:40:40;;;;;;;16.38;12.00;;;15.30;99.90;;;;;;5049861;28;20048;-88
2023/10/01 05:43:14;;;;;;;15.90;11.68;;;15.30;99.90;;;;;;5017157;28;20545;-88
2023/10/01 05:45:41;;;;;;;19.10;11.52;;;15.40;99.90;;;;;;5033488;28;20563;-89
2023/10/01 05:48:10;;;;;;;17.05;6.32;;;15.40;99.90;;;;;;5016722;28;20044;-89
2023/10/01 05:50:41;;;;;;;18.13;12.18;;;15.40;99.90;;;;;;5016932;28;20090;-89
2023/10/01 05:53:09;;;;;;;18.20;12.30;;;15.40;99.90;;;;;;5033621;28;20048;-89
2023/10/01 05:55:37;;;;;;;12.57;5.53;;;15.40;99.90;;;;;;5033110;28;20076;-89
2023/10/01 05:58:13;;;;;;;17.73;11.05;;;15.40;99.90;;;;;;5016967;28;20071;-89
2023/10/01 06:00:45;;;;;;;16.33;11.48;;;15.40;99.90;;;;;;5016604;28;20033;-89
2023/10/01 06:03:15;;;;;;;13.15;5.47;;;15.50;99.90;;;;;;5017020;28;20469;-89
2023/10/01 06:05:50;;;;;;;12.57;4.90;;;15.40;99.90;;;;;;5007385;28;20052;-89
2023/10/01 06:08:17;;;;;;;16.65;11.13;;;15.40;99.90;;;;;;5022542;28;20040;-89
2023/10/01 06:11:04;;;;;;;11.82;5.75;;;15.40;99.90;;;;;;5032745;28;20043;-89
2023/10/01 06:13:33;;;;;;;16.83;11.35;;;15.40;99.90;;;;;;5048634;28;20128;-89
2023/10/01 06:16:11;;;;;;;15.82;11.13;;;15.40;99.90;;;;;;5014018;28;20033;-89
2023/10/01 06:18:41;;;;;;;17.92;12.20;;;15.50;99.90;;;;;;5038030;28;20033;-89
2023/10/01 06:21:10;;;;;;;17.08;12.60;;;15.50;99.90;;;;;;5020823;28;20096;-89
2023/10/01 06:23:49;;;;;;;13.27;6.47;;;15.50;99.90;;;;;;5038244;28;20048;-89
2023/10/01 06:26:36;;;;;;;17.52;12.18;;;15.40;99.90;;;;;;5035248;28;20037;-88
2023/10/01 06:29:10;;;;;;;15.63;5.95;;;15.50;99.90;;;;;;5020707;28;20041;-89
2023/10/01 06:31:52;;;;;;;18.15;7.35;;;15.40;99.90;;;;;;5022443;28;20454;-89
2023/10/01 06:34:23;;;;;;;19.13;13.15;;;15.30;99.90;;;;;;5022088;28;20480;-89
2023/10/01 06:37:07;;;;;;;16.73;12.05;;;15.40;99.90;;;;;;5039316;28;20047;-89
2023/10/01 06:39:35;;;;;;;17.45;5.97;;;15.50;99.90;;;;;;5020750;28;20044;-89
2023/10/01 06:42:20;;;;;;;18.50;12.20;;;15.50;99.90;;;;;;5022377;28;20044;-89
2023/10/01 06:44:54;;;;;;;17.67;12.68;;;15.50;99.90;;;;;;5016362;28;20051;-89
2023/10/01 06:47:22;;;;;;;15.10;6.97;;;15.50;99.90;;;;;;5015664;28;20040;-89
2023/10/01 06:52:34;;;;;;;19.27;12.00;;;15.40;99.90;;;;;;5036488;28;20492;-89
2023/10/01 06:55:04;;;;;;;15.93;6.65;;;15.50;99.90;;;;;;5020425;28;20634;-89
2023/10/01 06:57:33;;;;;;;15.65;10.80;;;15.50;99.90;;;;;;5020194;28;20037;-89
2023/10/01 07:00:04;;;;;;;18.20;12.15;;;15.50;99.90;;;;;;5019744;28;20033;-89
2023/10/01 07:02:34;;;;;;;17.73;11.38;;;15.60;99.90;;;;;;5035866;28;20049;-89
2023/10/01 07:05:00;;;;;;;16.60;6.32;;;15.60;99.90;;;;;;5013144;28;20041;-89
2023/10/01 07:07:28;;;;;;;17.40;11.90;;;15.50;99.90;;;;;;5036325;28;20124;-88
2023/10/01 07:09:59;;;;;;;16.48;11.77;;;15.50;99.90;;;;;;5028410;28;20053;-88
2023/10/01 07:12:25;;;;;;;15.88;11.10;;;15.60;99.90;;;;;;5015116;28;20052;-89
2023/10/01 07:14:52;;;;;;;15.68;6.10;;;15.60;99.90;;;;;;5019741;28;20504;-88
2023/10/01 07:17:23;;;;;;;15.88;6.90;;;15.50;99.90;;;;;;5016630;28;20041;-88
2023/10/01 07:19:59;;;;;;;17.20;11.18;;;15.50;99.90;;;;;;5035158;28;20124;-89
2023/10/01 07:22:32;;;;;;;17.75;11.15;;;15.50;99.90;;;;;;5036015;28;20068;-88
2023/10/01 07:25:02;;;;;;;14.02;5.18;;;15.50;99.90;;;;;;5036021;28;20416;-89
2023/10/01 07:27:28;;;;;;;16.23;10.88;;;15.50;99.90;;;;;;5019984;28;20434;-88
2023/10/01 07:29:54;;;;;;;16.85;11.13;;;15.50;99.90;;;;;;5019398;28;20102;-89
2023/10/01 07:32:23;;;;;;;17.25;11.18;;;15.60;99.90;;;;;;5036268;28;20082;-89
2023/10/01 07:34:55;;;;;;;17.42;11.43;;;15.60;99.90;;;;;;5019173;28;20041;-89
2023/10/01 07:37:31;;;;;;;13.55;6.40;;;15.60;99.90;;;;;;5036121;28;20550;-88
2023/10/01 07:40:09;;;;;;;18.42;11.48;;;15.60;99.90;;;;;;5019544;28;20039;-89
2023/10/01 07:42:46;;;;;;;13.90;5.90;;;15.60;99.90;;;;;;5019986;28;20055;-88
2023/10/01 07:45:21;;;;;;;17.95;11.63;;;15.70;99.90;;;;;;5023284;28;20140;-89
2023/10/01 07:47:51;;;;;;;18.45;11.82;;;15.70;99.90;;;;;;5041448;28;20044;-89
2023/10/01 07:50:17;;;;;;;16.33;10.70;;;15.70;99.90;;;;;;5044228;28;20055;-88
2023/10/01 07:52:44;;;;;;;18.50;11.30;;;15.70;99.90;;;;;;5019066;28;20044;-89
2023/10/01 07:55:35;;;;;;;15.70;6.50;;;15.80;99.90;;;;;;5035030;28;20459;-89
2023/10/01 08:00:47;;;;;;;15.32;6.60;;;15.80;99.90;;;;;;5034430;28;20049;-90
2023/10/01 08:05:48;;;;;;;14.38;10.02;;;15.90;99.90;;;;;;5035413;28;20056;-89
2023/10/01 08:08:27;;;;;;;17.55;10.05;;;15.90;99.90;;;;;;5035300;28;20521;-89
2023/10/01 08:10:54;;;;;;;14.65;5.93;;;16.00;99.90;;;;;;5019073;28;20048;-90
2023/10/01 08:13:25;;;;;;;18.40;10.63;;;16.10;99.90;;;;;;5035879;28;20052;-90
2023/10/01 08:15:57;;;;;;;16.80;9.75;;;16.10;99.90;;;;;;5018744;28;20044;-89
2023/10/01 08:18:35;;;;;;;13.98;5.95;;;16.20;99.90;;;;;;5023095;28;20071;-88
2023/10/01 08:21:15;;;;;;;17.10;9.75;;;16.20;99.90;;;;;;5027739;28;20037;-89
2023/10/01 08:23:54;;;;;;;12.43;5.32;;;16.30;99.90;;;;;;5023371;28;20124;-89
2023/10/01 08:29:06;;;;;;;17.42;10.30;;;16.30;99.90;;;;;;5043517;28;20041;-90
2023/10/01 08:32:08;;;;;;;16.75;9.48;;;16.30;99.90;;;;;;5026019;28;20045;-90
2023/10/01 08:34:50;;;;;;;17.80;5.47;;;16.40;99.90;;;;;;5053300;28;20072;-89
2023/10/01 08:37:22;;;;;;;12.07;6.38;;;16.30;99.90;;;;;;5019526;28;20643;-89
2023/10/01 08:39:48;;;;;;;16.58;10.38;;;16.30;99.90;;;;;;5024128;28;20037;-89
2023/10/01 08:42:17;;;;;;;15.38;9.45;;;16.40;99.90;;;;;;5026675;28;20049;-89
2023/10/01 08:44:51;;;;;;;14.00;5.38;;;16.50;99.90;;;;;;5019335;28;20119;-89
2023/10/01 08:47:36;;;;;;;14.82;9.02;;;16.50;99.90;;;;;;5015126;28;20041;-89
2023/10/01 08:52:57;;;;;;;18.00;9.93;;;16.60;99.90;;;;;;5064553;28;20045;-89
2023/10/01 08:56:04;;;;;;;16.20;9.52;;;16.70;99.90;;;;;;5025111;28;20136;-89
2023/10/01 08:58:41;;;;;;;13.90;5.68;;;16.80;99.90;;;;;;5040153;28;20045;-89
2023/10/01 09:01:13;;;;;;;17.25;9.93;;;16.70;99.90;;;;;;5024040;28;20041;-89
2023/10/01 09:03:47;;;;;;;16.13;9.87;;;16.80;99.90;;;;;;5021912;28;20033;-88
2023/10/01 09:06:27;;;;;;;16.30;9.48;;;16.90;99.90;;;;;;5016065;28;20068;-88
2023/10/01 09:08:54;;;;;;;14.85;5.60;;;16.90;99.90;;;;;;5016911;28;20051;-89
2023/10/01 09:11:42;;;;;;;18.20;9.50;;;16.90;99.90;;;;;;5038644;28;20047;-88
2023/10/01 09:14:17;;;;;;;13.38;6.25;;;17.00;99.90;;;;;;5040236;28;20045;-89
2023/10/01 09:16:57;;;;;;;16.15;9.80;;;17.10;99.90;;;;;;5039625;28;20051;-89
2023/10/01 09:19:31;;;;;;;17.10;9.38;;;17.10;99.90;;;;;;5023593;28;20524;-89
2023/10/01 09:22:08;;;;;;;17.23;9.30;;;17.20;99.90;;;;;;5021408;28;20086;-88
2023/10/01 09:24:38;;;;;;;17.08;9.95;;;17.30;99.90;;;;;;5023501;28;20510;-89
2023/10/01 09:27:18;;;;;;;16.85;9.50;;;17.30;99.90;;;;;;5025150;28;20086;-88
2023/10/01 09:29:45;;;;;;;19.98;6.30;;;17.40;99.90;;;;;;5017097;28;20041;-89
2023/10/01 09:32:13;;;;;;;17.27;9.30;;;17.40;99.90;;;;;;5017244;28;20048;-89
2023/10/01 09:34:53;;;;;;;17.80;9.73;;;17.50;99.90;;;;;;5017401;28;20037;-87
2023/10/01 09:37:35;;;;;;;13.75;6.18;;;17.50;99.90;;;;;;5033787;28;20045;-89
2023/10/01 09:42:56;;;;;;;13.45;5.32;;;17.50;99.90;;;;;;5033304;28;20053;-89
2023/10/01 09:45:26;;;;;;;15.27;9.95;;;17.50;99.90;;;;;;5017713;28;20044;-89
2023/10/01 09:48:09;;;;;;;18.27;9.95;;;17.60;99.90;;;;;;5032843;28;20041;-89
2023/10/01 09:50:42;;;;;;;17.50;10.15;;;17.60;99.90;;;;;;5016760;28;20047;-89
2023/10/01 09:53:14;;;;;;;15.85;9.35;;;17.70;99.90;;;;;;5016987;28;20110;-90
2023/10/01 09:55:47;;;;;;;21.73;10.38;;;17.70;99.90;;;;;;5033521;28;20048;-89
2023/10/01 09:58:24;;;;;;;17.98;10.05;;;17.80;99.90;;;;;;5016896;28;20116;-90
2023/10/01 10:00:54;;;;;;;19.55;10.73;;;17.70;99.90;;;;;;5033510;28;20037;-90
2023/10/01 10:03:21;;;;;;;12.93;5.63;;;17.80;99.90;;;;;;5033456;28;20083;-89
2023/10/01 10:05:47;;;;;;;18.40;10.48;;;17.90;99.90;;;;;;5017141;28;20041;-90
2023/10/01 10:08:20;;;;;;;19.30;10.65;;;18.10;99.90;;;;;;5015330;28;20124;-89
2023/10/01 10:10:55;;;;;;;19.13;10.35;;;18.20;99.90;;;;;;5032855;28;20092;-90
2023/10/01 10:13:36;;;;;;;17.58;9.63;;;18.30;99.90;;;;;;5033221;28;20045;-91
2023/10/01 10:16:28;;;;;;;16.30;9.65;;;18.40;99.90;;;;;;5015693;28;20102;-90
2023/10/01 10:19:20;;;;;;;15.80;9.57;;;18.40;99.90;;;;;;5032137;28;20404;-90
2023/10/01 10:24:37;;;;;;;19.67;9.77;;;18.60;99.90;;;;;;5031856;28;20045;-89
2023/10/01 10:27:15;;;;;;;16.75;9.85;;;18.70;99.90;;;;;;5025647;28;20036;-90
2023/10/01 10:29:49;;;;;;;14.55;6.65;;;18.80;99.90;;;;;;5031638;28;20033;-89
2023/10/01 10:32:14;;;;;;;16.67;9.88;;;18.80;99.90;;;;;;5015613;28;20111;-89
2023/10/01 10:35:06;;;;;;;17.77;10.05;;;18.90;99.90;;;;;;5032617;28;20040;-89
2023/10/01 10:37:55;;;;;;;18.27;9.90;;;18.90;99.90;;;;;;5016442;28;20328;-90
2023/10/01 10:40:22;;;;;;;17.35;9.90;;;19.00;99.90;;;;;;5016193;28;20412;-90
2023/10/01 10:42:57;;;;;;;14.65;6.60;;;19.00;99.90;;;;;;5050137;28;20033;-89
2023/10/01 10:45:26;;;;;;;16.95;10.60;;;19.10;99.90;;;;;;5016333;28;20036;-89
2023/10/01 10:50:57;;;;;;;18.55;9.88;;;19.20;99.90;;;;;;5032213;28;20048;-89
2023/10/01 10:53:23;;;;;;;17.83;9.95;;;19.30;99.90;;;;;;5032974;28;20037;-90
2023/10/01 10:56:00;;;;;;;17.00;10.15;;;19.30;99.90;;;;;;5016219;28;20501;-90
2023/10/01 10:58:31;;;;;;;18.23;10.68;;;19.40;99.90;;;;;;5016163;28;20037;-90
2023/10/01 11:01:15;;;;;;;18.40;10.13;;;19.60;99.90;;;;;;5015977;28;20120;-90
2023/10/01 11:03:47;;;;;;;16.40;9.68;;;19.70;99.90;;;;;;5017593;28;20040;-89
2023/10/01 11:06:16;;;;;;;19.10;10.43;;;19.90;99.90;;;;;;5015925;28;20772;-88
2023/10/01 11:08:50;;;;;;;16.60;9.80;;;20.10;99.90;;;;;;5031233;28;20037;-89
2023/10/01 11:11:23;;;;;;;18.23;9.55;;;20.20;99.90;;;;;;5032822;28;20052;-89
2023/10/01 11:13:59;;;;;;;17.80;10.18;;;20.30;99.90;;;;;;5015359;28;20177;-89
2023/10/01 11:16:37;;;;;;;17.00;9.68;;;20.40;99.90;;;;;;5032580;28;20168;-90
2023/10/01 11:19:16;;;;;;;16.23;9.43;;;20.40;99.90;;;;;;5014606;28;20037;-89
2023/10/01 11:21:56;;;;;;;16.98;9.63;;;20.40;99.90;;;;;;5016374;28;20041;-89
2023/10/01 11:24:30;;;;;;;16.67;9.32;;;20.40;99.90;;;;;;5016629;28;20037;-88
2023/10/01 11:28:05;;;;;;;17.02;9.18;;;20.50;99.90;;;;;;5016416;28;20508;-89
2023/10/01 11:30:17;;;;;;;16.45;8.95;;;20.60;99.90;;;;;;5027625;28;20047;-89
2023/10/01 11:35:34;;;;;;;15.25;9.07;;;20.70;99.90;;;;;;5033405;28;20051;-89
2023/10/01 11:38:21;;;;;;;16.55;9.43;;;20.90;99.90;;;;;;5040428;28;20053;-90
2023/10/01 11:43:59;;;;;;;16.52;9.68;;;21.00;99.90;;;;;;4984101;28;20060;-89
2023/10/01 11:49:17;;;;;;;16.20;8.93;;;21.10;99.90;;;;;;5039240;28;20037;-89
2023/10/01 11:51:45;;;;;;;16.05;9.10;;;21.20;99.90;;;;;;5027926;28;20094;-90
2023/10/01 11:54:13;;;;;;;17.75;9.50;;;21.10;99.90;;;;;;5029480;28;20041;-90
2023/10/01 11:56:44;;;;;;;17.02;9.60;;;21.20;99.90;;;;;;5029771;28;20033;-90
2023/10/01 11:59:18;;;;;;;18.33;9.37;;;21.10;99.90;;;;;;5025878;28;20044;-90
2023/10/01 12:01:52;;;;;;;17.85;8.63;;;21.10;99.90;;;;;;5029714;28;20479;-90
2023/10/01 12:04:43;;;;;;;17.80;8.85;;;21.10;99.90;;;;;;5026791;28;20384;-89
2023/10/01 12:07:16;;;;;;;16.55;8.70;;;21.10;99.90;;;;;;5039343;28;20045;-89
2023/10/01 12:09:50;;;;;;;18.38;8.52;;;21.10;99.90;;;;;;5022130;28;20052;-89
2023/10/01 12:12:18;;;;;;;15.98;8.73;;;21.10;99.90;;;;;;5036909;28;20048;-90
2023/10/01 12:14:53;;;;;;;14.43;8.25;;;21.10;99.90;;;;;;5041856;28;20377;-90
2023/10/01 12:17:24;;;;;;;14.68;8.40;;;21.20;99.90;;;;;;5035650;28;20129;-89
2023/10/01 12:20:01;;;;;;;17.77;9.02;;;21.30;99.90;;;;;;5034704;28;20041;-90
2023/10/01 12:22:28;;;;;;;17.92;8.32;;;21.40;99.90;;;;;;5018825;28;20049;-89
2023/10/01 12:24:58;;;;;;;16.45;8.60;;;21.50;99.90;;;;;;5040849;28;20032;-89
2023/10/01 12:27:45;;;;;;;15.48;8.18;;;21.60;99.90;;;;;;5052614;28;20043;-90
2023/10/01 12:30:35;;;;;;;16.00;8.38;;;21.70;99.90;;;;;;5040214;28;20083;-90
2023/10/01 12:33:02;;;;;;;13.98;7.85;;;21.80;99.90;;;;;;5038352;28;20462;-90
2023/10/01 12:35:28;;;;;;;14.85;8.38;;;21.80;99.90;;;;;;5024649;28;20076;-89
2023/10/01 12:38:05;;;;;;;15.00;8.15;;;21.80;99.90;;;;;;5040729;28;20068;-89
2023/10/01 12:40:35;;;;;;;17.60;8.90;;;21.80;99.90;;;;;;5023906;28;20382;-89
2023/10/01 12:45:50;;;;;;;15.07;7.90;;;22.00;99.90;;;;;;5040026;28;20036;-90
2023/10/01 12:48:20;;;;;;;15.38;7.55;;;22.10;99.90;;;;;;5040052;28;20045;-90
2023/10/01 12:51:03;;;;;;;17.08;8.50;;;22.20;99.90;;;;;;5025437;28;20516;-90
2023/10/01 12:53:47;;;;;;;14.10;7.60;;;22.40;99.90;;;;;;5033940;28;20060;-90
2023/10/01 12:56:15;;;;;;;15.13;7.47;;;22.50;99.90;;;;;;5024445;28;20025;-90
2023/10/01 12:58:53;;;;;;;14.85;7.57;;;22.60;99.90;;;;;;5022631;28;20045;-89
2023/10/01 13:01:31;;;;;;;14.57;7.70;;;22.70;99.90;;;;;;5018187;28;20068;-90
2023/10/01 13:06:48;;;;;;;14.20;6.85;;;22.90;99.90;;;;;;5034180;28;20427;-90
2023/10/01 13:12:14;;;;;;;14.13;6.80;;;23.20;99.90;;;;;;5033649;28;20045;-91
2023/10/01 13:15:15;;;;;;;14.85;7.40;;;23.30;99.90;;;;;;5031908;28;20040;-90
2023/10/01 13:17:43;;;;;;;13.23;6.80;;;23.40;98.70;;;;;;5034004;28;20531;-90
2023/10/01 13:20:29;;;;;;;12.95;6.50;;;23.30;99.50;;;;;;5033574;28;20102;-90
2023/10/01 13:22:59;;;;;;;11.85;6.15;;;23.30;99.90;;;;;;5014675;28;20117;-90
2023/10/01 13:25:28;;;;;;;12.70;6.05;;;23.30;99.90;;;;;;5034112;28;20117;-90
2023/10/01 13:28:06;;;;;;;12.95;5.97;;;23.20;99.90;;;;;;5017154;28;20119;-90
2023/10/01 13:33:20;;;;;;;10.88;5.53;;;23.60;99.90;;;;;;5047511;28;20076;-90
2023/10/01 13:35:56;;;;;;;14.23;6.20;;;23.80;98.60;;;;;;5027748;28;20072;-91
2023/10/01 14:10:54;;;;;;;11.60;5.88;;;25.30;85.90;;;;;;5039454;28;20045;-90
2023/10/01 14:13:35;;;;;;;12.05;6.50;;;25.30;85.30;;;;;;5017069;28;20044;-90
2023/10/01 14:16:40;;;;;;;11.32;5.95;;;25.40;86.40;;;;;;5010445;28;20048;-90
2023/10/01 14:19:18;;;;;;;12.20;6.00;;;25.50;85.80;;;;;;5022691;28;20488;-91
2023/10/01 14:21:43;;;;;;;13.43;6.50;;;25.20;86.20;;;;;;5032591;28;20045;-90
2023/10/01 14:24:25;;;;;;;12.45;6.35;;;24.80;88.80;;;;;;5009078;28;20043;-90
2023/10/01 14:26:55;;;;;;;12.98;6.65;;;24.50;90.40;;;;;;5036270;28;20525;-89
2023/10/01 14:29:24;;;;;;;12.35;6.57;;;24.20;91.70;;;;;;5022771;28;20119;-89
2023/10/01 14:31:54;;;;;;;12.80;6.65;;;24.00;95.30;;;;;;5039153;28;20532;-90
2023/10/01 14:34:21;;;;;;;14.00;6.30;;;23.80;95.80;;;;;;5024447;28;20507;-90